Time;durP1;ratioP1;P1;durP2;ratioP2;P2;SDS_P1;SDS_P2;PMS_P1;PMS_P2;Temp;Humidity;BMP_temperature;BMP_pressure;BME280_temperature;BME280_humidity;BME280_pressure;Samples;Min_cycle;Max_cycle;Signal;HPM_P1;HPM_P2
2023/12/11 00:00:05;;;;;;;12.57;3.40;;;8.90;99.90;;;;;;5077622;28;20032;-84
2023/12/11 00:02:31;;;;;;;18.08;3.97;;;8.80;99.90;;;;;;5052702;28;20079;-84
2023/12/11 00:04:57;;;;;;;23.02;4.15;;;8.80;99.90;;;;;;5069423;28;20099;-84
2023/12/11 00:07:23;;;;;;;15.50;3.50;;;8.70;99.90;;;;;;5069322;28;20040;-84
2023/12/11 00:09:48;;;;;;;19.90;4.35;;;8.80;99.90;;;;;;5070268;28;20028;-84
2023/12/11 00:12:14;;;;;;;19.73;4.80;;;8.70;99.90;;;;;;5069210;28;20028;-84
2023/12/11 00:14:40;;;;;;;16.50;3.80;;;8.70;99.90;;;;;;5074333;28;20028;-84
2023/12/11 00:17:06;;;;;;;18.00;3.72;;;8.60;99.90;;;;;;5069039;28;20046;-84
2023/12/11 00:19:31;;;;;;;19.75;4.28;;;8.60;99.90;;;;;;5067988;28;20024;-84
2023/12/11 00:21:57;;;;;;;21.58;4.25;;;8.50;99.90;;;;;;5095275;28;20205;-84
2023/12/11 00:24:23;;;;;;;18.75;4.40;;;8.50;99.90;;;;;;5056041;28;20066;-84
2023/12/11 00:26:49;;;;;;;19.42;4.07;;;8.50;99.90;;;;;;5068821;28;20055;-84
2023/12/11 00:29:14;;;;;;;17.95;4.00;;;8.40;99.90;;;;;;5068691;28;20036;-84
2023/12/11 00:31:40;;;;;;;21.30;4.10;;;8.40;99.90;;;;;;5058339;28;20044;-84
2023/12/11 00:34:06;;;;;;;16.70;4.07;;;8.40;99.90;;;;;;5072271;28;20060;-85
2023/12/11 00:36:32;;;;;;;19.10;4.00;;;8.30;99.90;;;;;;5035834;28;20032;-85
2023/12/11 00:38:57;;;;;;;21.85;4.32;;;8.40;99.90;;;;;;5068816;28;20053;-84
2023/12/11 00:41:23;;;;;;;26.27;5.05;;;8.30;99.90;;;;;;5086275;28;20043;-84
2023/12/11 00:43:49;;;;;;;21.83;4.85;;;8.30;99.90;;;;;;5053292;28;20035;-84
2023/12/11 00:46:16;;;;;;;20.23;4.55;;;8.30;99.90;;;;;;5068687;28;20058;-84
2023/12/11 00:48:42;;;;;;;18.95;4.10;;;8.30;99.90;;;;;;5068591;28;20035;-84
2023/12/11 00:51:18;;;;;;;25.42;5.35;;;8.30;99.90;;;;;;5068178;28;20249;-85
2023/12/11 00:53:47;;;;;;;20.42;4.32;;;8.30;99.90;;;;;;5067101;28;20028;-85
2023/12/11 00:56:14;;;;;;;22.67;4.32;;;8.30;99.90;;;;;;5084944;28;20040;-84
2023/12/11 00:58:39;;;;;;;21.85;4.80;;;8.30;99.90;;;;;;5085031;28;20254;-85
2023/12/11 01:01:06;;;;;;;22.13;4.65;;;8.30;99.90;;;;;;5086537;28;20032;-85
2023/12/11 01:03:33;;;;;;;20.30;4.80;;;8.20;99.90;;;;;;5073951;28;20032;-84
2023/12/11 01:05:59;;;;;;;22.70;5.18;;;8.30;99.90;;;;;;5068497;28;20040;-84
2023/12/11 01:08:27;;;;;;;18.05;4.10;;;8.20;99.90;;;;;;5051590;28;20049;-85
2023/12/11 01:10:54;;;;;;;25.17;4.38;;;8.30;99.90;;;;;;5076122;28;20040;-83
2023/12/11 01:13:20;;;;;;;23.52;5.10;;;8.30;99.90;;;;;;5052552;28;20075;-85
2023/12/11 01:15:46;;;;;;;20.75;5.82;;;8.30;99.90;;;;;;5051916;28;20035;-85
2023/12/11 01:18:12;;;;;;;26.50;5.80;;;8.30;99.90;;;;;;5051651;28;20059;-84
2023/12/11 01:20:38;;;;;;;21.25;4.68;;;8.30;99.90;;;;;;5051311;28;20163;-84
2023/12/11 01:23:05;;;;;;;20.52;4.82;;;8.30;99.90;;;;;;5056174;28;20053;-84
2023/12/11 01:25:30;;;;;;;23.80;5.60;;;8.30;99.90;;;;;;5055020;28;20028;-84
2023/12/11 01:27:57;;;;;;;22.98;4.80;;;8.30;99.90;;;;;;5056735;28;20032;-84
2023/12/11 01:30:22;;;;;;;21.05;4.88;;;8.30;99.90;;;;;;5050917;28;20074;-84
2023/12/11 01:32:48;;;;;;;24.23;5.22;;;8.40;99.90;;;;;;5077228;28;20032;-85
2023/12/11 01:35:14;;;;;;;22.48;4.97;;;8.40;99.90;;;;;;5056636;28;20048;-84
2023/12/11 01:37:42;;;;;;;21.75;4.75;;;8.30;99.90;;;;;;5067359;28;20121;-84
2023/12/11 01:40:09;;;;;;;23.40;5.28;;;8.40;99.90;;;;;;5084037;28;20219;-84
2023/12/11 01:42:34;;;;;;;21.00;4.97;;;8.40;99.90;;;;;;5057377;28;20024;-84
2023/12/11 01:45:00;;;;;;;26.52;4.95;;;8.40;99.90;;;;;;5042456;28;20299;-83
2023/12/11 01:47:26;;;;;;;19.20;4.75;;;8.40;99.90;;;;;;5068410;28;20036;-84
2023/12/11 01:49:52;;;;;;;22.95;5.25;;;8.40;99.90;;;;;;5056325;28;20028;-84
2023/12/11 01:52:19;;;;;;;21.45;4.45;;;8.40;99.90;;;;;;5067083;28;20035;-84
2023/12/11 01:54:45;;;;;;;23.00;5.45;;;8.40;99.90;;;;;;5067594;28;20345;-85
2023/12/11 01:57:11;;;;;;;22.60;5.50;;;8.40;99.90;;;;;;5052214;28;20087;-84
2023/12/11 01:59:38;;;;;;;22.30;5.05;;;8.40;99.90;;;;;;5067819;28;20039;-84
2023/12/11 02:02:04;;;;;;;18.42;4.40;;;8.40;99.90;;;;;;5065145;28;20081;-84
2023/12/11 02:04:31;;;;;;;22.38;5.10;;;8.40;99.90;;;;;;5050789;28;20270;-84
2023/12/11 02:06:57;;;;;;;22.60;4.78;;;8.40;99.90;;;;;;5093672;28;20028;-84
2023/12/11 02:09:23;;;;;;;20.05;4.82;;;8.40;99.90;;;;;;5066982;28;20071;-84
2023/12/11 02:11:50;;;;;;;16.15;4.18;;;8.50;99.90;;;;;;5084923;28;20105;-84
2023/12/11 02:14:15;;;;;;;17.33;4.72;;;8.50;99.90;;;;;;5052030;28;20020;-84
2023/12/11 02:16:41;;;;;;;17.17;4.10;;;8.60;99.90;;;;;;5067002;28;20216;-84
2023/12/11 02:19:07;;;;;;;16.35;3.85;;;8.60;99.90;;;;;;5067112;28;20032;-84
2023/12/11 02:21:33;;;;;;;18.63;4.78;;;8.60;99.90;;;;;;5083983;28;20043;-83
2023/12/11 02:24:05;;;;;;;17.42;3.95;;;8.60;99.90;;;;;;5066653;28;20048;-83
2023/12/11 02:26:31;;;;;;;21.03;4.63;;;8.60;99.90;;;;;;5083779;28;20064;-83
2023/12/11 02:28:57;;;;;;;23.35;5.72;;;8.60;99.90;;;;;;5056891;28;20067;-83
2023/12/11 02:31:23;;;;;;;18.35;3.78;;;8.60;99.90;;;;;;5050256;28;20035;-84
2023/12/11 02:33:48;;;;;;;21.80;4.57;;;8.60;99.90;;;;;;5050242;28;20039;-84
2023/12/11 02:36:14;;;;;;;19.83;4.20;;;8.60;99.90;;;;;;5066908;28;20163;-84
2023/12/11 02:38:40;;;;;;;17.23;4.50;;;8.60;99.90;;;;;;5067907;28;20077;-83
2023/12/11 02:41:06;;;;;;;23.45;5.53;;;8.60;99.90;;;;;;5050137;28;20036;-83
2023/12/11 02:43:33;;;;;;;23.90;4.78;;;8.60;99.90;;;;;;5049930;28;20139;-84
2023/12/11 02:45:59;;;;;;;19.08;4.57;;;8.60;99.90;;;;;;5050359;28;20195;-84
2023/12/11 02:48:24;;;;;;;18.83;4.68;;;8.60;99.90;;;;;;5067067;28;20087;-84
2023/12/11 02:50:50;;;;;;;22.48;4.50;;;8.60;99.90;;;;;;5049924;28;20025;-84
2023/12/11 02:53:16;;;;;;;25.23;4.75;;;8.60;99.90;;;;;;5083086;28;20244;-84
2023/12/11 02:55:42;;;;;;;23.92;4.35;;;8.60;99.90;;;;;;5066578;28;20061;-84
2023/12/11 02:58:07;;;;;;;26.67;5.20;;;8.70;99.90;;;;;;5049983;28;20055;-84
2023/12/11 03:00:33;;;;;;;20.52;4.90;;;8.60;99.90;;;;;;5055422;28;20039;-84
2023/12/11 03:02:59;;;;;;;24.17;4.03;;;8.60;99.90;;;;;;5049971;28;20051;-84
2023/12/11 03:05:25;;;;;;;26.95;5.45;;;8.60;99.90;;;;;;5049753;28;20333;-84
2023/12/11 03:07:51;;;;;;;24.77;4.80;;;8.70;99.90;;;;;;5082995;28;20036;-84
2023/12/11 03:10:16;;;;;;;21.42;4.63;;;8.70;99.90;;;;;;5084062;28;20102;-84
2023/12/11 03:12:42;;;;;;;21.48;5.10;;;8.70;99.90;;;;;;5067387;28;20533;-84
2023/12/11 03:15:09;;;;;;;25.75;4.70;;;8.60;99.90;;;;;;5066081;28;20077;-85
2023/12/11 03:17:35;;;;;;;19.67;4.40;;;8.60;99.90;;;;;;5084351;28;20027;-83
2023/12/11 03:20:01;;;;;;;21.70;5.15;;;8.60;99.90;;;;;;5069655;28;20040;-84
2023/12/11 03:22:27;;;;;;;23.10;4.80;;;8.60;99.90;;;;;;5059408;28;20048;-84
2023/12/11 03:24:53;;;;;;;25.15;4.97;;;8.70;99.90;;;;;;5058969;28;20311;-84
2023/12/11 03:27:22;;;;;;;19.23;5.05;;;8.70;99.90;;;;;;5086744;28;20066;-84
2023/12/11 03:29:49;;;;;;;26.25;4.68;;;8.70;99.90;;;;;;5069834;28;20283;-84
2023/12/11 03:32:14;;;;;;;22.20;5.57;;;8.60;99.90;;;;;;5057227;28;20105;-84
2023/12/11 03:34:40;;;;;;;25.33;6.45;;;8.60;99.90;;;;;;5069786;28;20277;-84
2023/12/11 03:37:06;;;;;;;24.98;6.35;;;8.70;99.90;;;;;;5094650;28;20039;-84
2023/12/11 03:39:32;;;;;;;22.65;5.07;;;8.70;99.90;;;;;;5061276;28;20028;-84
2023/12/11 03:41:58;;;;;;;25.13;5.00;;;8.70;99.90;;;;;;5069652;28;20036;-84
2023/12/11 03:44:24;;;;;;;22.98;5.28;;;8.70;99.90;;;;;;5053106;28;20044;-84
2023/12/11 03:46:50;;;;;;;25.33;5.75;;;8.70;99.90;;;;;;5069443;28;20063;-84
2023/12/11 03:49:16;;;;;;;22.63;5.07;;;8.70;99.90;;;;;;5055989;28;20118;-84
2023/12/11 03:51:43;;;;;;;28.48;5.97;;;8.70;99.90;;;;;;5069660;28;20047;-84
2023/12/11 03:54:09;;;;;;;25.88;5.35;;;8.70;99.90;;;;;;5043570;28;20034;-84
2023/12/11 03:56:34;;;;;;;24.52;5.40;;;8.70;99.90;;;;;;5069048;28;20345;-84
2023/12/11 03:59:00;;;;;;;23.83;5.50;;;8.80;99.90;;;;;;5093443;28;20172;-84
2023/12/11 04:01:26;;;;;;;23.00;5.30;;;8.80;99.90;;;;;;5087256;28;20036;-84
2023/12/11 04:03:52;;;;;;;28.15;6.28;;;8.80;99.90;;;;;;5069316;28;20082;-84
2023/12/11 04:06:18;;;;;;;26.75;5.93;;;8.80;99.90;;;;;;5069003;28;20069;-84
2023/12/11 04:08:43;;;;;;;23.30;5.45;;;8.80;99.90;;;;;;5068814;28;20036;-84
2023/12/11 04:11:09;;;;;;;27.30;6.07;;;8.80;99.90;;;;;;5046646;28;20036;-84
2023/12/11 04:13:35;;;;;;;24.17;5.03;;;8.80;99.90;;;;;;5069116;28;20055;-84
2023/12/11 04:16:03;;;;;;;27.38;5.40;;;8.80;99.90;;;;;;5086140;28;20028;-83
2023/12/11 04:18:33;;;;;;;30.90;6.15;;;8.80;99.90;;;;;;5119199;28;20039;-84
2023/12/11 04:20:59;;;;;;;30.58;6.75;;;8.80;99.90;;;;;;5057408;28;20036;-84
2023/12/11 04:23:25;;;;;;;19.55;4.78;;;8.80;99.90;;;;;;5048410;28;20044;-84
2023/12/11 04:25:54;;;;;;;23.90;5.47;;;8.90;99.90;;;;;;5080712;28;20035;-84
2023/12/11 04:28:21;;;;;;;31.88;5.85;;;8.80;99.90;;;;;;5068804;28;20046;-84
2023/12/11 04:30:47;;;;;;;27.77;6.05;;;8.90;99.90;;;;;;5068456;28;20274;-84
2023/12/11 04:33:13;;;;;;;26.17;6.07;;;8.90;99.90;;;;;;5068684;28;20060;-83
2023/12/11 04:35:38;;;;;;;24.10;4.78;;;8.90;99.90;;;;;;5072082;28;20044;-83
2023/12/11 04:38:04;;;;;;;23.80;5.50;;;8.90;99.90;;;;;;5068671;28;20075;-84
2023/12/11 04:40:30;;;;;;;25.52;5.18;;;9.00;99.90;;;;;;5075823;28;20042;-84
2023/12/11 04:42:56;;;;;;;26.98;5.53;;;8.90;99.90;;;;;;5052283;28;20039;-84
2023/12/11 04:45:21;;;;;;;20.85;6.00;;;8.90;99.90;;;;;;5051900;28;20131;-84
2023/12/11 04:47:47;;;;;;;26.65;5.57;;;8.90;99.90;;;;;;5051954;28;20028;-84
2023/12/11 04:50:13;;;;;;;23.42;5.15;;;8.90;99.90;;;;;;5068457;28;20442;-84
2023/12/11 04:52:39;;;;;;;21.75;5.63;;;8.80;99.90;;;;;;5051975;28;20288;-84
2023/12/11 04:55:05;;;;;;;21.95;4.57;;;8.90;99.90;;;;;;5081848;28;20027;-84
2023/12/11 04:57:31;;;;;;;24.85;5.82;;;8.90;99.90;;;;;;5035457;28;20038;-84
2023/12/11 04:59:56;;;;;;;20.88;5.22;;;8.90;99.90;;;;;;5068307;28;20044;-83
2023/12/11 05:02:22;;;;;;;25.15;5.30;;;8.90;99.90;;;;;;5087414;28;20104;-84
2023/12/11 05:04:48;;;;;;;28.35;5.70;;;8.90;99.90;;;;;;5068374;28;20035;-84
2023/12/11 05:07:13;;;;;;;23.80;4.38;;;8.90;99.90;;;;;;5081094;28;20032;-84
2023/12/11 05:09:39;;;;;;;20.98;4.75;;;8.90;99.90;;;;;;5031374;28;20055;-84
2023/12/11 05:12:05;;;;;;;24.48;5.75;;;8.90;99.90;;;;;;5042102;28;20059;-83
2023/12/11 05:14:31;;;;;;;25.02;5.57;;;8.80;99.90;;;;;;5049638;28;20048;-84
2023/12/11 05:16:57;;;;;;;23.75;5.10;;;8.80;99.90;;;;;;5031838;28;20028;-84
2023/12/11 05:19:22;;;;;;;21.65;5.10;;;8.80;99.90;;;;;;5050775;28;20268;-84
2023/12/11 05:21:48;;;;;;;20.75;4.60;;;8.80;99.90;;;;;;5084034;28;20163;-84
2023/12/11 05:24:14;;;;;;;19.20;4.82;;;8.80;99.90;;;;;;5071247;28;20285;-83
2023/12/11 05:26:40;;;;;;;21.15;4.28;;;8.80;99.90;;;;;;5100733;28;21139;-84
2023/12/11 05:29:06;;;;;;;23.75;5.07;;;8.80;99.90;;;;;;5085834;28;20042;-84
2023/12/11 05:31:32;;;;;;;18.63;5.55;;;8.80;99.90;;;;;;5067330;28;20058;-84
2023/12/11 05:33:58;;;;;;;23.02;5.55;;;8.80;99.90;;;;;;5068154;28;20032;-84
2023/12/11 05:36:24;;;;;;;23.58;4.90;;;8.80;99.90;;;;;;5071537;28;20035;-84
2023/12/11 05:38:50;;;;;;;25.50;5.65;;;8.80;99.90;;;;;;5053932;28;20094;-83
2023/12/11 05:41:17;;;;;;;20.10;4.90;;;8.80;99.90;;;;;;5082924;28;20036;-84
2023/12/11 05:43:42;;;;;;;16.70;4.10;;;8.80;99.90;;;;;;5066637;28;20028;-83
2023/12/11 05:46:08;;;;;;;22.80;4.88;;;8.80;99.90;;;;;;5037307;28;20388;-84
2023/12/11 05:48:34;;;;;;;22.80;4.57;;;8.80;99.90;;;;;;5088555;28;20091;-84
2023/12/11 05:51:00;;;;;;;16.20;4.50;;;8.80;99.90;;;;;;5072790;28;20028;-84
2023/12/11 05:53:25;;;;;;;23.45;4.50;;;8.80;99.90;;;;;;5073680;28;20039;-84
2023/12/11 05:55:51;;;;;;;20.58;4.50;;;8.80;99.90;;;;;;5113642;28;20047;-84
2023/12/11 05:58:17;;;;;;;19.08;4.57;;;8.80;99.90;;;;;;5049962;28;20036;-84
2023/12/11 06:00:44;;;;;;;21.75;4.72;;;8.80;99.90;;;;;;5033396;28;20080;-84
2023/12/11 06:03:10;;;;;;;20.23;4.55;;;8.80;99.90;;;;;;5067115;28;20036;-84
2023/12/11 06:05:36;;;;;;;22.92;4.82;;;8.80;99.90;;;;;;5078900;28;20146;-84
2023/12/11 06:08:02;;;;;;;21.17;4.68;;;8.80;99.90;;;;;;5071259;28;20052;-84
2023/12/11 06:10:29;;;;;;;20.30;4.85;;;8.80;99.90;;;;;;5067781;28;20201;-84
2023/12/11 06:12:55;;;;;;;25.70;4.93;;;8.80;99.90;;;;;;5069041;28;20055;-84
2023/12/11 06:15:21;;;;;;;20.70;4.45;;;8.80;99.90;;;;;;5081019;28;20078;-84
2023/12/11 06:17:46;;;;;;;20.27;4.35;;;8.80;99.90;;;;;;5056290;28;20035;-84
2023/12/11 06:20:12;;;;;;;21.85;5.18;;;8.80;99.90;;;;;;5054162;28;20063;-83
2023/12/11 06:22:38;;;;;;;22.27;4.95;;;8.80;99.90;;;;;;5086415;28;20041;-84
2023/12/11 06:25:04;;;;;;;22.65;4.55;;;8.80;99.90;;;;;;5049313;28;20048;-84
2023/12/11 06:27:30;;;;;;;19.20;4.40;;;8.80;99.90;;;;;;5046648;28;20267;-84
2023/12/11 06:29:55;;;;;;;23.65;4.85;;;8.80;99.90;;;;;;5078138;28;20034;-83
2023/12/11 06:32:22;;;;;;;22.63;5.25;;;8.80;99.90;;;;;;5083103;28;20056;-84
2023/12/11 06:34:47;;;;;;;18.77;4.25;;;8.80;99.90;;;;;;5049854;28;20078;-84
2023/12/11 06:37:13;;;;;;;19.63;4.20;;;8.80;99.90;;;;;;5066306;28;20290;-85
2023/12/11 06:39:39;;;;;;;17.80;4.47;;;8.80;99.90;;;;;;5074939;28;20039;-84
2023/12/11 06:42:05;;;;;;;16.63;3.97;;;8.80;99.90;;;;;;5059311;28;20111;-84
2023/12/11 06:44:31;;;;;;;23.05;4.25;;;8.80;99.90;;;;;;5050123;28;20163;-84
2023/12/11 06:46:56;;;;;;;16.73;4.45;;;8.80;99.90;;;;;;5050097;28;20035;-84
2023/12/11 06:49:22;;;;;;;21.83;4.35;;;8.80;99.90;;;;;;5071267;28;20170;-85
2023/12/11 06:51:49;;;;;;;16.23;3.88;;;8.70;99.90;;;;;;5070438;28;20028;-84
2023/12/11 06:54:15;;;;;;;17.50;4.07;;;8.80;99.90;;;;;;5072130;28;20035;-84
2023/12/11 06:56:41;;;;;;;15.27;3.90;;;8.70;99.90;;;;;;5062897;28;20028;-83
2023/12/11 06:59:07;;;;;;;15.32;3.22;;;8.80;99.90;;;;;;5091271;28;20031;-83
2023/12/11 07:01:33;;;;;;;17.23;4.03;;;8.70;99.90;;;;;;5073664;28;20043;-83
2023/12/11 07:04:00;;;;;;;16.05;3.95;;;8.70;99.90;;;;;;5037556;28;20035;-83
2023/12/11 07:06:26;;;;;;;18.88;5.40;;;8.70;99.90;;;;;;5091140;28;20040;-83
2023/12/11 07:08:51;;;;;;;19.50;4.45;;;8.80;99.90;;;;;;5055662;28;20131;-83
2023/12/11 07:11:17;;;;;;;19.67;4.55;;;8.70;99.90;;;;;;5077684;28;20210;-83
2023/12/11 07:13:43;;;;;;;22.52;4.95;;;8.70;99.90;;;;;;5053159;28;20028;-83
2023/12/11 07:16:09;;;;;;;16.00;3.90;;;8.70;99.90;;;;;;5076127;28;20043;-83
2023/12/11 07:18:35;;;;;;;19.05;3.85;;;8.70;99.90;;;;;;5064038;28;20046;-84
2023/12/11 07:21:02;;;;;;;16.08;3.60;;;8.70;99.90;;;;;;5055866;28;20178;-83
2023/12/11 07:23:28;;;;;;;16.27;4.00;;;8.70;99.90;;;;;;5078860;28;20158;-84
2023/12/11 07:25:55;;;;;;;18.40;3.78;;;8.60;99.90;;;;;;5093111;28;20335;-83
2023/12/11 07:28:21;;;;;;;23.25;4.70;;;8.70;99.90;;;;;;5056737;28;20055;-83
2023/12/11 07:30:47;;;;;;;15.60;3.50;;;8.70;99.90;;;;;;5058914;28;20046;-83
2023/12/11 07:33:12;;;;;;;15.25;3.90;;;8.70;99.90;;;;;;5066784;28;20035;-83
2023/12/11 07:35:38;;;;;;;14.63;3.47;;;8.70;99.90;;;;;;5069663;28;20055;-83
2023/12/11 07:38:04;;;;;;;20.13;3.63;;;8.60;99.90;;;;;;5055116;28;20081;-83
2023/12/11 07:40:30;;;;;;;16.05;3.28;;;8.60;99.90;;;;;;5087381;28;20051;-83
2023/12/11 07:42:55;;;;;;;17.33;3.47;;;8.60;99.90;;;;;;5089590;28;20016;-82
2023/12/11 07:45:24;;;;;;;15.63;2.90;;;8.60;99.90;;;;;;5083446;28;20023;-83
2023/12/11 07:47:50;;;;;;;15.98;2.92;;;8.60;99.90;;;;;;5058856;28;20158;-83
2023/12/11 07:50:16;;;;;;;14.02;3.80;;;8.70;99.90;;;;;;5072985;28;20158;-83
2023/12/11 07:52:42;;;;;;;14.13;3.30;;;8.60;99.90;;;;;;5094440;28;20036;-83
2023/12/11 07:55:08;;;;;;;13.43;2.90;;;8.70;99.90;;;;;;5074359;28;20032;-82
2023/12/11 07:57:34;;;;;;;14.95;3.00;;;8.60;99.90;;;;;;5073920;28;20283;-82
2023/12/11 08:00:00;;;;;;;16.08;3.03;;;8.60;99.90;;;;;;5071791;28;20031;-82
2023/12/11 08:02:25;;;;;;;15.48;2.67;;;8.60;99.90;;;;;;5072213;28;20075;-82
2023/12/11 08:04:51;;;;;;;13.20;2.90;;;8.60;99.90;;;;;;5058970;28;20051;-82
2023/12/11 08:07:18;;;;;;;14.35;3.58;;;8.60;99.90;;;;;;5059267;28;20030;-82
2023/12/11 08:09:44;;;;;;;19.30;3.38;;;8.60;99.90;;;;;;5055959;28;20048;-82
2023/12/11 08:12:10;;;;;;;15.15;3.40;;;8.70;99.90;;;;;;5073485;28;20084;-83
2023/12/11 08:14:37;;;;;;;13.65;3.05;;;8.70;99.90;;;;;;5069357;28;20399;-83
2023/12/11 08:17:04;;;;;;;13.30;3.15;;;8.70;99.90;;;;;;5072643;28;20095;-83
2023/12/11 08:19:33;;;;;;;13.40;2.78;;;8.70;99.90;;;;;;5073011;28;20032;-83
2023/12/11 08:21:59;;;;;;;12.00;2.85;;;8.70;99.90;;;;;;5085584;28;20040;-83
2023/12/11 08:24:25;;;;;;;13.95;3.10;;;8.70;99.90;;;;;;5077924;28;20095;-83
2023/12/11 08:26:50;;;;;;;11.75;2.85;;;8.70;99.90;;;;;;5069052;28;20246;-83
2023/12/11 08:29:17;;;;;;;11.50;2.78;;;8.70;99.90;;;;;;5085224;28;20023;-82
2023/12/11 08:31:43;;;;;;;12.10;2.80;;;8.80;99.90;;;;;;5077192;28;20198;-82
2023/12/11 08:34:09;;;;;;;10.98;2.53;;;8.70;99.90;;;;;;5069877;28;20028;-83
2023/12/11 08:36:35;;;;;;;11.02;3.00;;;8.70;99.90;;;;;;5084859;28;20054;-82
2023/12/11 08:39:01;;;;;;;11.50;2.40;;;8.70;99.90;;;;;;5069849;28;20098;-83
2023/12/11 08:41:27;;;;;;;9.57;2.40;;;8.70;99.90;;;;;;5069596;28;20036;-83
2023/12/11 08:43:53;;;;;;;10.07;2.60;;;8.70;99.90;;;;;;5056556;28;20163;-83
2023/12/11 08:46:19;;;;;;;9.82;2.47;;;8.70;99.90;;;;;;5088078;28;20052;-83
2023/12/11 08:48:44;;;;;;;9.60;2.67;;;8.70;99.90;;;;;;5052007;28;20095;-83
2023/12/11 08:51:11;;;;;;;10.63;2.58;;;8.70;99.90;;;;;;5068714;28;20087;-83
2023/12/11 08:53:36;;;;;;;8.40;2.22;;;8.70;99.90;;;;;;5053885;28;20071;-83
2023/12/11 08:56:02;;;;;;;9.50;2.30;;;8.70;99.90;;;;;;5052198;28;20047;-82
2023/12/11 08:58:28;;;;;;;7.65;2.22;;;8.80;99.90;;;;;;5052580;28;20028;-82
2023/12/11 09:00:54;;;;;;;10.45;2.60;;;8.70;99.90;;;;;;5078309;28;20382;-83
2023/12/11 09:03:21;;;;;;;10.55;2.38;;;8.80;99.90;;;;;;5051795;28;20036;-83
2023/12/11 09:05:47;;;;;;;10.15;2.45;;;8.80;99.90;;;;;;5088411;28;20177;-82
2023/12/11 09:08:12;;;;;;;13.65;2.83;;;8.80;99.90;;;;;;5075812;28;20032;-82
2023/12/11 09:10:40;;;;;;;8.23;2.13;;;8.80;99.90;;;;;;5067994;28;20101;-83
2023/12/11 09:13:06;;;;;;;11.30;2.47;;;8.80;99.90;;;;;;5085888;28;20044;-83
2023/12/11 09:15:32;;;;;;;11.02;2.55;;;8.80;99.90;;;;;;5052620;28;20036;-82
2023/12/11 09:17:57;;;;;;;12.70;2.60;;;8.80;99.90;;;;;;5053460;28;20070;-83
2023/12/11 09:20:23;;;;;;;11.95;2.60;;;8.80;99.90;;;;;;5069969;28;20110;-83
2023/12/11 09:22:49;;;;;;;11.13;2.53;;;8.80;99.90;;;;;;5060915;28;20036;-82
2023/12/11 09:25:15;;;;;;;10.23;2.30;;;8.80;99.90;;;;;;5059765;28;20033;-83
2023/12/11 09:27:41;;;;;;;10.13;2.50;;;8.90;99.90;;;;;;5065055;28;20075;-83
2023/12/11 09:30:09;;;;;;;11.45;2.75;;;8.90;99.90;;;;;;5062362;28;20028;-83
2023/12/11 09:32:35;;;;;;;11.23;2.75;;;8.90;99.90;;;;;;5062903;28;20024;-83
2023/12/11 09:35:01;;;;;;;9.95;2.83;;;9.00;99.90;;;;;;5064293;28;20340;-83
2023/12/11 09:37:27;;;;;;;11.73;3.20;;;8.90;99.90;;;;;;5031713;28;20032;-82
2023/12/11 09:39:52;;;;;;;12.35;2.80;;;9.00;99.90;;;;;;5064573;28;20036;-83
2023/12/11 09:42:18;;;;;;;12.27;2.92;;;9.00;99.90;;;;;;5080187;28;20024;-83
2023/12/11 09:44:46;;;;;;;13.05;3.15;;;9.00;99.90;;;;;;5061482;28;20082;-84
2023/12/11 09:47:28;;;;;;;12.98;3.03;;;9.00;99.90;;;;;;5064228;28;20074;-83
2023/12/11 09:49:55;;;;;;;14.68;3.50;;;9.00;99.90;;;;;;5063406;28;20375;-83
2023/12/11 09:52:24;;;;;;;11.68;2.88;;;9.30;99.90;;;;;;5047676;28;20100;-82
2023/12/11 09:54:50;;;;;;;14.55;4.13;;;9.00;99.90;;;;;;5063444;28;20020;-83
2023/12/11 09:57:16;;;;;;;13.70;3.00;;;9.00;99.90;;;;;;5064509;28;20174;-83
2023/12/11 09:59:43;;;;;;;11.15;3.13;;;9.00;99.90;;;;;;5080319;28;20033;-83
2023/12/11 10:02:14;;;;;;;14.75;3.35;;;9.10;99.90;;;;;;5080928;28;20040;-82
2023/12/11 10:05:10;;;;;;;11.10;3.33;;;9.10;99.90;;;;;;5081091;28;20028;-83
2023/12/11 10:07:45;;;;;;;11.98;3.17;;;9.20;99.90;;;;;;5071285;28;20082;-83
2023/12/11 10:10:28;;;;;;;12.65;2.90;;;9.20;99.90;;;;;;5063608;28;20101;-83
2023/12/11 10:12:54;;;;;;;11.27;2.95;;;9.20;99.90;;;;;;5047893;28;20053;-83
2023/12/11 10:15:23;;;;;;;10.02;3.00;;;9.30;99.90;;;;;;5064049;28;20067;-83
2023/12/11 10:18:06;;;;;;;10.85;3.50;;;9.20;99.90;;;;;;5080682;28;20086;-83
2023/12/11 10:20:33;;;;;;;11.15;2.80;;;9.30;99.90;;;;;;5062114;28;20028;-83
2023/12/11 10:23:04;;;;;;;9.27;2.50;;;9.30;99.90;;;;;;5079128;28;20052;-83
2023/12/11 10:25:30;;;;;;;12.77;2.55;;;9.30;99.90;;;;;;5048254;28;20381;-83
2023/12/11 10:28:08;;;;;;;9.23;2.25;;;9.40;99.90;;;;;;5053953;28;20037;-83
2023/12/11 10:30:47;;;;;;;12.75;2.75;;;9.40;99.90;;;;;;5087316;28;20151;-84
2023/12/11 10:33:13;;;;;;;11.70;2.80;;;9.40;99.90;;;;;;5085804;28;20049;-83
2023/12/11 10:35:39;;;;;;;9.35;2.58;;;9.40;99.90;;;;;;5054037;28;20036;-83
2023/12/11 10:38:05;;;;;;;10.35;2.05;;;9.40;99.90;;;;;;5086975;28;20247;-83
2023/12/11 10:40:41;;;;;;;10.57;2.20;;;9.30;99.90;;;;;;5087156;28;20048;-83
2023/12/11 10:43:08;;;;;;;6.30;2.25;;;9.30;99.90;;;;;;5069255;28;20067;-83
2023/12/11 10:45:34;;;;;;;12.60;2.95;;;9.30;99.90;;;;;;5070269;28;20040;-83
2023/12/11 10:48:00;;;;;;;10.25;2.00;;;9.30;99.90;;;;;;5087105;28;20033;-83
2023/12/11 10:50:27;;;;;;;6.80;1.77;;;9.30;99.90;;;;;;5084654;28;20036;-83
2023/12/11 10:52:53;;;;;;;13.88;2.40;;;9.30;99.90;;;;;;5100787;28;20031;-83
2023/12/11 10:55:19;;;;;;;11.52;2.40;;;9.30;99.90;;;;;;5068812;28;20047;-83
2023/12/11 10:57:45;;;;;;;10.98;2.97;;;9.30;99.90;;;;;;5053799;28;20294;-83
2023/12/11 11:00:14;;;;;;;12.30;2.58;;;9.30;99.90;;;;;;5100434;28;20079;-83
2023/12/11 11:02:50;;;;;;;13.50;2.70;;;9.30;99.90;;;;;;5070436;28;20047;-83
2023/12/11 11:05:17;;;;;;;13.55;2.70;;;9.30;99.90;;;;;;5099592;28;20020;-83
2023/12/11 11:08:21;;;;;;;11.35;2.55;;;9.30;99.90;;;;;;5067926;28;20079;-83
2023/12/11 11:10:56;;;;;;;12.70;2.75;;;9.30;99.90;;;;;;5086806;28;20032;-84
2023/12/11 11:13:29;;;;;;;14.00;2.60;;;9.30;99.90;;;;;;5086534;28;20039;-83
2023/12/11 11:15:55;;;;;;;13.75;2.92;;;9.30;99.90;;;;;;5086682;28;20063;-84
2023/12/11 11:18:21;;;;;;;13.18;3.28;;;9.40;99.90;;;;;;5051614;28;20282;-83
2023/12/11 11:21:12;;;;;;;11.65;2.85;;;9.30;99.90;;;;;;5053361;28;20036;-83
2023/12/11 11:23:42;;;;;;;14.43;3.88;;;9.30;99.90;;;;;;5085111;28;20059;-83
2023/12/11 11:26:34;;;;;;;15.13;2.70;;;9.30;99.90;;;;;;5069930;28;20021;-83
2023/12/11 11:29:04;;;;;;;14.88;2.85;;;9.40;99.90;;;;;;5051655;28;20051;-83
2023/12/11 11:31:49;;;;;;;8.27;2.15;;;9.30;99.90;;;;;;5049703;28;20103;-83
2023/12/11 11:34:35;;;;;;;11.77;3.03;;;9.30;99.90;;;;;;5054609;28;20274;-83
2023/12/11 11:37:01;;;;;;;12.05;3.17;;;9.40;99.90;;;;;;5068065;28;20305;-84
2023/12/11 11:39:57;;;;;;;10.20;2.42;;;8.40;99.90;;;;;;5065124;28;20147;-84
2023/12/11 11:42:23;;;;;;;14.32;3.03;;;9.40;99.90;;;;;;5080373;28;20104;-84
2023/12/11 11:44:57;;;;;;;12.82;2.30;;;9.30;99.90;;;;;;5065210;28;20024;-84
2023/12/11 11:47:24;;;;;;;10.95;2.42;;;9.30;99.90;;;;;;5082482;28;20103;-84
2023/12/11 11:49:49;;;;;;;10.30;2.40;;;9.30;99.90;;;;;;5032233;28;20043;-83
2023/12/11 11:52:28;;;;;;;9.30;2.47;;;9.30;99.90;;;;;;5033087;28;20239;-83
2023/12/11 11:55:06;;;;;;;8.75;2.10;;;9.30;99.90;;;;;;5070743;28;20034;-84
2023/12/11 11:57:32;;;;;;;8.57;1.73;;;9.30;99.90;;;;;;5082579;28;20086;-84
2023/12/11 11:59:58;;;;;;;10.10;2.67;;;9.30;99.90;;;;;;5049747;28;20163;-84
2023/12/11 12:02:24;;;;;;;10.02;2.20;;;9.30;99.90;;;;;;5049263;28;20059;-83
2023/12/11 12:04:50;;;;;;;7.90;2.10;;;9.30;99.90;;;;;;5065567;28;20067;-84
2023/12/11 12:07:16;;;;;;;9.45;2.17;;;9.30;99.90;;;;;;5065170;28;20032;-83
2023/12/11 12:09:42;;;;;;;10.57;2.08;;;9.30;99.90;;;;;;5048498;28;20056;-83
2023/12/11 12:12:14;;;;;;;10.75;2.30;;;9.30;99.90;;;;;;5048716;28;20031;-84
2023/12/11 12:14:41;;;;;;;9.05;2.05;;;9.30;99.90;;;;;;5096279;28;20040;-83
2023/12/11 12:17:10;;;;;;;9.90;2.50;;;9.20;99.90;;;;;;5065813;28;20040;-83
2023/12/11 12:19:37;;;;;;;10.65;2.25;;;9.20;99.90;;;;;;5048201;28;20028;-83
2023/12/11 12:22:03;;;;;;;10.18;2.33;;;9.20;99.90;;;;;;5048005;28;20063;-83
2023/12/11 12:24:39;;;;;;;6.72;1.77;;;9.20;99.90;;;;;;5073723;28;20055;-83
2023/12/11 12:27:09;;;;;;;9.02;1.90;;;9.30;99.90;;;;;;5043383;28;20028;-83
2023/12/11 12:29:36;;;;;;;7.35;2.00;;;9.30;99.90;;;;;;5068218;28;20293;-83
2023/12/11 12:32:02;;;;;;;7.22;1.90;;;9.30;99.90;;;;;;5065405;28;20216;-83
2023/12/11 12:34:31;;;;;;;8.50;2.08;;;9.30;99.90;;;;;;5070469;28;20043;-83
2023/12/11 12:37:00;;;;;;;8.30;1.80;;;9.30;99.90;;;;;;5085854;28;20020;-83
2023/12/11 12:39:27;;;;;;;10.07;2.30;;;9.30;99.90;;;;;;5051615;28;20032;-83
2023/12/11 12:41:52;;;;;;;14.50;2.53;;;9.40;99.90;;;;;;5065399;28;20257;-83
2023/12/11 12:44:18;;;;;;;13.60;2.60;;;9.30;99.90;;;;;;5049109;28;20028;-82
2023/12/11 12:46:45;;;;;;;10.30;3.03;;;9.30;99.90;;;;;;5072032;28;20036;-83